Time;durP1;ratioP1;P1;durP2;ratioP2;P2;SDS_P1;SDS_P2;PMS_P1;PMS_P2;Temp;Humidity;BMP_temperature;BMP_pressure;BME280_temperature;BME280_humidity;BME280_pressure;Samples;Min_cycle;Max_cycle;Signal;HPM_P1;HPM_P2
2022/07/23 00:01:28;;;;;;;1.88;1.75;;;15.90;99.90;;;;;;5081669;28;20078;-78
2022/07/23 00:03:54;;;;;;;3.28;2.97;;;15.80;99.90;;;;;;5081571;28;20500;-79
2022/07/23 00:06:20;;;;;;;2.45;2.25;;;15.80;99.90;;;;;;5082816;28;20075;-78
2022/07/23 00:08:46;;;;;;;2.83;1.88;;;15.80;99.90;;;;;;5082678;28;20076;-79
2022/07/23 00:11:12;;;;;;;11.77;2.55;;;15.70;99.90;;;;;;5083187;28;20785;-79
2022/07/23 00:13:37;;;;;;;3.40;3.20;;;15.70;99.90;;;;;;5082125;28;20490;-79
2022/07/23 00:16:03;;;;;;;3.47;3.17;;;15.70;99.90;;;;;;5082324;28;20391;-79
2022/07/23 00:18:29;;;;;;;3.67;3.03;;;15.70;99.90;;;;;;5080858;28;20109;-79
2022/07/23 00:20:55;;;;;;;4.13;3.13;;;15.70;99.90;;;;;;5082451;28;20536;-79
2022/07/23 00:23:20;;;;;;;5.25;4.03;;;15.70;99.90;;;;;;5082789;28;20554;-79
2022/07/23 00:25:46;;;;;;;4.45;3.00;;;15.70;99.90;;;;;;5082076;28;20047;-79
2022/07/23 00:28:12;;;;;;;4.35;2.83;;;15.60;99.90;;;;;;5082074;28;20044;-78
2022/07/23 00:30:38;;;;;;;5.35;2.85;;;15.60;99.90;;;;;;5081745;28;20032;-78
2022/07/23 00:33:07;;;;;;;3.65;2.88;;;15.60;99.90;;;;;;5061633;28;20077;-79
2022/07/23 00:35:35;;;;;;;4.28;2.95;;;15.60;99.90;;;;;;5063649;28;20087;-78
2022/07/23 00:38:02;;;;;;;2.63;2.42;;;15.60;99.90;;;;;;5081503;28;20437;-79
2022/07/23 00:40:29;;;;;;;2.90;2.70;;;15.60;99.90;;;;;;5081911;28;20032;-78
2022/07/23 00:42:55;;;;;;;3.30;2.67;;;15.50;99.90;;;;;;5081283;28;20043;-78
2022/07/23 00:45:21;;;;;;;4.65;3.17;;;15.50;99.90;;;;;;5081496;28;20032;-79
2022/07/23 00:47:47;;;;;;;2.47;2.28;;;15.50;99.90;;;;;;5080773;28;20089;-79
2022/07/23 00:50:13;;;;;;;3.10;2.60;;;15.50;99.90;;;;;;5081774;28;20116;-78
2022/07/23 00:52:40;;;;;;;3.75;2.47;;;15.40;99.90;;;;;;5047156;28;20036;-79
2022/07/23 00:55:07;;;;;;;4.38;2.42;;;15.40;99.90;;;;;;5047016;28;20091;-79
2022/07/23 00:57:33;;;;;;;2.28;2.08;;;15.40;99.90;;;;;;5063733;28;20040;-78
2022/07/23 00:59:59;;;;;;;2.40;2.20;;;15.40;99.90;;;;;;5081079;28;20043;-79
2022/07/23 01:02:26;;;;;;;2.75;2.50;;;15.40;99.90;;;;;;5062770;28;20749;-79
2022/07/23 01:04:51;;;;;;;3.40;2.50;;;15.30;99.90;;;;;;5080941;28;20044;-79
2022/07/23 01:07:18;;;;;;;3.33;2.30;;;15.30;99.90;;;;;;5049771;23;20063;-79
2022/07/23 01:09:45;;;;;;;3.17;2.40;;;15.30;99.90;;;;;;5056705;28;20041;-80
2022/07/23 01:12:11;;;;;;;3.53;2.67;;;15.30;99.90;;;;;;5041158;28;20052;-79
2022/07/23 01:14:36;;;;;;;3.67;2.63;;;15.30;99.90;;;;;;5040917;28;20048;-79
2022/07/23 01:17:03;;;;;;;2.45;2.25;;;15.30;99.90;;;;;;5048693;28;20513;-79
2022/07/23 01:19:29;;;;;;;3.08;2.50;;;15.30;99.90;;;;;;5061145;28;20483;-79
2022/07/23 01:21:56;;;;;;;2.05;1.90;;;15.20;99.90;;;;;;5050017;28;20151;-79
2022/07/23 01:24:22;;;;;;;2.95;1.90;;;15.20;99.90;;;;;;5060961;28;20044;-79
2022/07/23 01:26:48;;;;;;;3.85;2.78;;;15.20;99.90;;;;;;5060493;28;20387;-79
2022/07/23 01:29:14;;;;;;;1.55;1.38;;;15.20;99.90;;;;;;5061138;28;20047;-79
2022/07/23 01:31:40;;;;;;;2.90;2.70;;;15.20;99.90;;;;;;5040894;28;20510;-79
2022/07/23 01:34:07;;;;;;;2.60;2.40;;;15.20;99.90;;;;;;5042636;28;20051;-79
2022/07/23 01:36:33;;;;;;;2.40;1.92;;;15.20;99.90;;;;;;5060781;28;20087;-79
2022/07/23 01:38:59;;;;;;;5.15;1.88;;;15.20;99.90;;;;;;5060323;28;20055;-79
2022/07/23 01:41:24;;;;;;;6.03;3.20;;;15.10;99.90;;;;;;5031777;28;20049;-79
2022/07/23 01:43:50;;;;;;;2.80;2.15;;;15.10;99.90;;;;;;5040371;28;20445;-79
2022/07/23 01:46:16;;;;;;;3.50;2.30;;;15.10;99.90;;;;;;5039817;28;20041;-79
2022/07/23 01:48:42;;;;;;;2.20;2.03;;;15.10;99.90;;;;;;5041236;28;20041;-79
2022/07/23 01:51:08;;;;;;;6.63;3.67;;;15.10;99.90;;;;;;5023870;28;20044;-79
2022/07/23 01:53:34;;;;;;;3.92;2.53;;;15.10;99.90;;;;;;5060467;28;20047;-79
2022/07/23 01:56:00;;;;;;;3.22;2.85;;;15.10;99.90;;;;;;5060296;28;20037;-79
2022/07/23 01:58:26;;;;;;;2.55;2.35;;;15.10;99.90;;;;;;5059587;28;20124;-79
2022/07/23 02:00:53;;;;;;;3.13;2.85;;;15.10;99.90;;;;;;5058638;28;20444;-79
2022/07/23 02:03:19;;;;;;;2.30;1.95;;;15.10;99.90;;;;;;5049938;28;20483;-79
2022/07/23 02:05:44;;;;;;;2.08;1.88;;;15.10;99.90;;;;;;5039864;28;20040;-79
2022/07/23 02:08:10;;;;;;;2.30;2.10;;;15.10;99.90;;;;;;5040676;28;20148;-79
2022/07/23 02:10:35;;;;;;;2.75;2.15;;;15.10;99.90;;;;;;5038706;28;20048;-79
2022/07/23 02:13:01;;;;;;;3.13;2.88;;;15.10;99.90;;;;;;5040392;28;20048;-79
2022/07/23 02:15:28;;;;;;;2.83;2.25;;;15.10;99.90;;;;;;5002900;28;20045;-79
2022/07/23 02:17:54;;;;;;;2.55;2.38;;;15.10;99.90;;;;;;5036739;28;20052;-79
2022/07/23 02:20:20;;;;;;;2.30;1.80;;;15.10;99.90;;;;;;5040066;28;20037;-79
2022/07/23 02:22:45;;;;;;;4.30;2.00;;;15.10;99.90;;;;;;5039976;28;20051;-79
2022/07/23 02:25:11;;;;;;;3.22;2.28;;;15.10;99.90;;;;;;5040556;28;20511;-79
2022/07/23 02:27:37;;;;;;;4.85;2.70;;;15.10;99.90;;;;;;5039844;28;20133;-79
2022/07/23 02:30:04;;;;;;;2.38;2.17;;;15.10;99.90;;;;;;5040374;28;20667;-79
2022/07/23 02:32:29;;;;;;;2.60;2.35;;;15.00;99.90;;;;;;5048580;28;20420;-79
2022/07/23 02:34:55;;;;;;;2.58;1.55;;;15.10;99.90;;;;;;5059341;28;20047;-79
2022/07/23 02:37:21;;;;;;;2.45;2.08;;;15.00;99.90;;;;;;5042210;28;20052;-79
2022/07/23 02:39:48;;;;;;;2.28;1.73;;;15.00;99.90;;;;;;5059619;28;20479;-79
2022/07/23 02:42:14;;;;;;;4.32;2.58;;;15.00;99.90;;;;;;5059442;28;20048;-79
2022/07/23 02:44:39;;;;;;;2.63;1.95;;;15.00;99.90;;;;;;5040517;28;20119;-79
2022/07/23 02:47:05;;;;;;;2.13;1.67;;;15.00;99.90;;;;;;5038896;28;20124;-79
2022/07/23 02:49:31;;;;;;;2.25;1.63;;;14.90;99.90;;;;;;5039821;28;20068;-79
2022/07/23 02:51:56;;;;;;;2.97;2.20;;;14.90;99.90;;;;;;5039959;28;20601;-79
2022/07/23 02:54:22;;;;;;;2.47;2.28;;;14.90;99.90;;;;;;5039734;28;20037;-79
2022/07/23 02:56:47;;;;;;;12.50;1.77;;;14.90;99.90;;;;;;5022000;28;20147;-79
2022/07/23 02:59:13;;;;;;;2.83;1.90;;;14.90;99.90;;;;;;5053286;28;20048;-79
2022/07/23 03:01:39;;;;;;;1.70;1.60;;;14.80;99.90;;;;;;5059711;28;20508;-79
2022/07/23 03:04:04;;;;;;;2.13;1.92;;;14.80;99.90;;;;;;5041405;28;20040;-79
2022/07/23 03:06:30;;;;;;;1.70;1.52;;;14.80;99.90;;;;;;5059156;28;20041;-79
2022/07/23 03:08:55;;;;;;;3.00;1.88;;;14.70;99.90;;;;;;5061287;28;20040;-79
2022/07/23 03:11:21;;;;;;;3.88;1.67;;;14.70;99.90;;;;;;5063705;28;20040;-79
2022/07/23 03:13:46;;;;;;;2.20;2.00;;;14.70;99.90;;;;;;5034590;28;20037;-79
2022/07/23 03:16:12;;;;;;;4.47;2.08;;;14.70;99.90;;;;;;5063196;28;20498;-79
2022/07/23 03:18:38;;;;;;;2.63;2.10;;;14.70;99.90;;;;;;5063410;28;20055;-79
2022/07/23 03:21:03;;;;;;;1.80;1.70;;;14.70;99.90;;;;;;5063453;28;20070;-79
2022/07/23 03:23:29;;;;;;;2.30;2.17;;;14.70;99.90;;;;;;5030117;28;20055;-79
2022/07/23 03:25:55;;;;;;;4.43;3.15;;;14.70;99.90;;;;;;5039653;28;20049;-79
2022/07/23 03:28:20;;;;;;;2.42;1.95;;;14.70;99.90;;;;;;5025455;28;20048;-79
2022/07/23 03:30:47;;;;;;;5.05;2.08;;;14.70;99.90;;;;;;5041865;28;20482;-79
2022/07/23 03:33:14;;;;;;;3.13;2.17;;;14.70;99.90;;;;;;5061737;28;20037;-79
2022/07/23 03:35:40;;;;;;;3.80;1.63;;;14.70;99.90;;;;;;5063536;28;20379;-79
2022/07/23 03:38:06;;;;;;;3.60;2.75;;;14.70;99.90;;;;;;5054349;28;20091;-79
2022/07/23 03:40:31;;;;;;;2.38;1.67;;;14.70;99.90;;;;;;5042979;28;20609;-79
2022/07/23 03:42:57;;;;;;;3.97;2.28;;;14.60;99.90;;;;;;5043149;28;20028;-79
2022/07/23 03:45:22;;;;;;;2.78;2.55;;;14.60;99.90;;;;;;5042999;28;20087;-78
2022/07/23 03:47:48;;;;;;;2.10;1.90;;;14.60;99.90;;;;;;5041772;28;20037;-79
2022/07/23 03:50:14;;;;;;;5.78;2.15;;;14.60;99.90;;;;;;5025295;28;20545;-79
2022/07/23 03:52:40;;;;;;;2.15;1.85;;;14.50;99.90;;;;;;5058470;28;20044;-79
2022/07/23 03:55:06;;;;;;;1.75;1.65;;;14.50;99.90;;;;;;5062118;28;20111;-79
2022/07/23 03:57:32;;;;;;;2.38;1.90;;;14.50;99.90;;;;;;5062838;28;20033;-79
2022/07/23 03:59:58;;;;;;;2.80;2.30;;;14.50;99.90;;;;;;5062335;28;20041;-79
2022/07/23 04:02:24;;;;;;;5.18;1.83;;;14.50;99.90;;;;;;5061149;28;20127;-79
2022/07/23 04:04:49;;;;;;;5.50;2.38;;;14.50;99.90;;;;;;5062264;28;20090;-79
2022/07/23 04:07:17;;;;;;;2.60;2.40;;;14.50;99.90;;;;;;5062086;28;20048;-79
2022/07/23 04:09:42;;;;;;;4.40;2.22;;;14.50;99.90;;;;;;5062773;28;20047;-79
2022/07/23 04:12:08;;;;;;;2.85;2.60;;;14.50;99.90;;;;;;5041766;28;20041;-79
2022/07/23 04:14:34;;;;;;;2.15;2.03;;;14.60;99.90;;;;;;5056189;28;20055;-79
2022/07/23 04:16:59;;;;;;;1.98;1.83;;;14.50;99.90;;;;;;5060999;28;20060;-79
2022/07/23 04:19:26;;;;;;;1.75;1.65;;;14.60;99.90;;;;;;5061806;28;20086;-79
2022/07/23 04:21:51;;;;;;;3.45;1.88;;;14.50;99.90;;;;;;5043095;28;20032;-79
2022/07/23 04:24:17;;;;;;;2.42;1.75;;;14.60;99.90;;;;;;5062386;28;20043;-79
2022/07/23 04:26:43;;;;;;;4.13;2.45;;;14.50;99.90;;;;;;5044006;28;20064;-78
2022/07/23 04:29:09;;;;;;;2.88;2.67;;;14.50;99.90;;;;;;5044759;28;20059;-78
2022/07/23 04:31:35;;;;;;;2.33;2.15;;;14.50;99.90;;;;;;5059608;28;20115;-79
2022/07/23 04:34:00;;;;;;;3.28;2.42;;;14.50;99.90;;;;;;5041176;28;20033;-78
2022/07/23 04:36:26;;;;;;;5.55;3.50;;;14.50;99.90;;;;;;5041803;28;20123;-78
2022/07/23 04:38:51;;;;;;;3.80;2.78;;;14.50;99.90;;;;;;5024973;28;20071;-79
2022/07/23 04:41:17;;;;;;;2.72;1.92;;;14.50;99.90;;;;;;5041982;28;20076;-79
2022/07/23 04:43:43;;;;;;;3.83;2.33;;;14.50;99.90;;;;;;5042111;28;20037;-78
2022/07/23 04:46:10;;;;;;;3.63;2.22;;;14.50;99.90;;;;;;5040923;28;20076;-79
2022/07/23 04:48:36;;;;;;;5.15;3.47;;;14.50;99.90;;;;;;5041795;28;20091;-79
2022/07/23 04:51:01;;;;;;;3.25;2.40;;;14.50;99.90;;;;;;5043783;28;20063;-80
2022/07/23 04:53:27;;;;;;;3.17;2.63;;;14.50;99.90;;;;;;5061103;28;20041;-80
2022/07/23 04:55:53;;;;;;;3.40;3.10;;;14.50;99.90;;;;;;5059707;28;20040;-80
2022/07/23 04:58:21;;;;;;;1.70;1.60;;;14.50;99.90;;;;;;5038010;28;20029;-81
2022/07/23 05:00:46;;;;;;;3.65;3.28;;;14.50;99.90;;;;;;5043716;28;20140;-81
2022/07/23 05:03:12;;;;;;;3.33;2.50;;;14.60;99.90;;;;;;5023560;28;20150;-80
2022/07/23 05:05:38;;;;;;;2.47;2.28;;;14.60;99.90;;;;;;4999329;28;20094;-80
2022/07/23 05:08:04;;;;;;;4.68;2.45;;;14.60;99.90;;;;;;5014334;28;20079;-80
2022/07/23 05:10:29;;;;;;;5.20;2.90;;;14.60;99.90;;;;;;5004638;28;20061;-81
2022/07/23 05:12:55;;;;;;;2.25;2.00;;;14.60;99.90;;;;;;5021712;28;20518;-80
2022/07/23 05:15:21;;;;;;;2.08;1.65;;;14.60;99.90;;;;;;5025007;28;20037;-81
2022/07/23 05:17:46;;;;;;;3.25;2.08;;;14.60;99.90;;;;;;5026100;28;20091;-80
2022/07/23 05:20:13;;;;;;;2.28;2.08;;;14.60;99.90;;;;;;5025965;28;20095;-81
2022/07/23 05:22:39;;;;;;;2.05;1.85;;;14.60;99.90;;;;;;5022122;28;20379;-79
2022/07/23 05:25:05;;;;;;;3.25;2.28;;;14.60;99.90;;;;;;5023560;28;20057;-80
2022/07/23 05:27:31;;;;;;;2.33;2.13;;;14.70;99.90;;;;;;5025791;28;20041;-79
2022/07/23 05:29:57;;;;;;;1.58;1.48;;;14.60;99.90;;;;;;5022248;28;20096;-80
2022/07/23 05:32:24;;;;;;;2.00;1.90;;;14.70;99.90;;;;;;5019357;28;20045;-87
2022/07/23 05:34:50;;;;;;;2.53;2.33;;;14.70;99.90;;;;;;5020804;28;20045;-80
2022/07/23 05:37:16;;;;;;;1.15;1.08;;;14.70;99.90;;;;;;5047414;28;20045;-81
2022/07/23 05:39:41;;;;;;;1.45;1.38;;;14.70;99.90;;;;;;5042992;28;20395;-82
2022/07/23 05:42:07;;;;;;;1.50;1.20;;;14.80;99.90;;;;;;5042157;28;20052;-85
2022/07/23 05:44:33;;;;;;;1.45;1.15;;;14.80;99.90;;;;;;5061846;28;20582;-86
2022/07/23 05:46:59;;;;;;;1.88;1.77;;;14.80;99.90;;;;;;5058895;28;20049;-85
2022/07/23 05:49:24;;;;;;;1.00;1.00;;;14.90;99.90;;;;;;5060523;28;20045;-84
2022/07/23 05:51:50;;;;;;;2.03;1.55;;;14.90;99.90;;;;;;5042092;28;20052;-84
2022/07/23 05:54:16;;;;;;;2.58;1.20;;;14.90;99.90;;;;;;5054290;28;20424;-85
2022/07/23 05:56:41;;;;;;;0.63;0.55;;;14.90;99.90;;;;;;5022936;28;20487;-85
2022/07/23 05:59:07;;;;;;;0.77;0.77;;;15.00;99.90;;;;;;5040280;28;20387;-85
2022/07/23 06:01:32;;;;;;;0.68;0.50;;;15.00;99.90;;;;;;5039649;28;20091;-81
2022/07/23 06:03:58;;;;;;;1.48;0.93;;;15.10;99.90;;;;;;5037679;28;20033;-81
2022/07/23 06:06:23;;;;;;;1.08;0.47;;;15.10;99.90;;;;;;5001203;28;20081;-79
2022/07/23 06:08:49;;;;;;;0.35;0.30;;;15.10;99.90;;;;;;5017323;28;20124;-82
2022/07/23 06:11:15;;;;;;;0.60;0.60;;;15.20;99.90;;;;;;4986204;28;20038;-81
2022/07/23 06:13:40;;;;;;;7.68;1.00;;;15.20;99.90;;;;;;5027698;28;20128;-81
2022/07/23 06:16:06;;;;;;;12.50;0.63;;;15.20;99.90;;;;;;5020788;28;20154;-81
2022/07/23 06:18:31;;;;;;;0.82;0.52;;;15.30;99.90;;;;;;5057748;28;20177;-81
2022/07/23 06:20:57;;;;;;;0.32;0.30;;;15.30;99.90;;;;;;5040974;28;20062;-81
2022/07/23 06:23:22;;;;;;;0.20;0.20;;;15.30;99.90;;;;;;5025763;28;20064;-82
2022/07/23 06:25:48;;;;;;;0.65;0.60;;;15.40;99.90;;;;;;5021955;28;20121;-81
2022/07/23 06:28:13;;;;;;;0.98;0.63;;;15.40;99.90;;;;;;4988336;28;20044;-81
2022/07/23 06:30:39;;;;;;;0.43;0.38;;;15.40;99.90;;;;;;5013516;28;20049;-81
2022/07/23 06:33:05;;;;;;;0.63;0.55;;;15.40;99.90;;;;;;5039958;28;20044;-81
2022/07/23 06:35:30;;;;;;;0.82;0.63;;;15.50;99.90;;;;;;5039139;28;20098;-81
2022/07/23 06:37:56;;;;;;;0.80;0.55;;;15.50;99.90;;;;;;5039334;28;20376;-81
2022/07/23 06:40:21;;;;;;;0.73;0.57;;;15.50;99.90;;;;;;5021869;28;20055;-81
2022/07/23 06:42:47;;;;;;;0.50;0.50;;;15.50;99.90;;;;;;5037939;28;20120;-80
2022/07/23 06:45:13;;;;;;;1.52;0.57;;;15.60;99.90;;;;;;5021327;28;20134;-80
2022/07/23 06:47:40;;;;;;;0.50;0.50;;;15.60;99.90;;;;;;5040072;28;20044;-80
2022/07/23 06:50:06;;;;;;;0.43;0.43;;;15.70;99.90;;;;;;5039343;28;20116;-80
2022/07/23 06:52:31;;;;;;;0.47;0.47;;;15.70;99.90;;;;;;5039369;28;20468;-82
2022/07/23 06:54:57;;;;;;;0.50;0.50;;;15.70;99.90;;;;;;5032148;28;20080;-84
2022/07/23 06:57:25;;;;;;;0.35;0.35;;;15.80;99.90;;;;;;5040689;28;20044;-82
2022/07/23 06:59:51;;;;;;;0.50;0.50;;;15.80;99.90;;;;;;5022045;28;20044;-81
2022/07/23 07:02:16;;;;;;;0.20;0.20;;;15.90;99.90;;;;;;5038657;28;20122;-81
2022/07/23 07:04:42;;;;;;;0.65;0.50;;;16.00;99.90;;;;;;5039726;28;20210;-81
2022/07/23 07:07:08;;;;;;;0.52;0.38;;;15.90;99.90;;;;;;5026612;28;20053;-81
2022/07/23 07:09:33;;;;;;;0.28;0.25;;;16.00;99.90;;;;;;5026813;28;20049;-81
2022/07/23 07:11:59;;;;;;;0.63;0.40;;;16.00;99.90;;;;;;5018011;28;20483;-82
2022/07/23 07:14:25;;;;;;;0.40;0.30;;;16.10;99.90;;;;;;5016091;28;20088;-81
2022/07/23 07:16:50;;;;;;;0.73;0.50;;;16.10;99.90;;;;;;5036789;28;20143;-80
2022/07/23 07:19:16;;;;;;;0.50;0.50;;;16.10;99.90;;;;;;5038693;28;20052;-81
2022/07/23 07:21:41;;;;;;;0.60;0.60;;;16.20;99.90;;;;;;5040165;28;20041;-83
2022/07/23 07:24:07;;;;;;;0.43;0.43;;;16.20;99.90;;;;;;5037254;28;20040;-75
2022/07/23 07:26:33;;;;;;;0.20;0.20;;;16.20;99.90;;;;;;5030570;28;20049;-76
2022/07/23 07:28:59;;;;;;;0.50;0.50;;;16.30;99.90;;;;;;5022320;28;20061;-75
2022/07/23 07:31:24;;;;;;;4.03;0.70;;;16.30;99.90;;;;;;5018088;28;20049;-73
2022/07/23 07:33:50;;;;;;;0.35;0.35;;;16.30;99.90;;;;;;5000972;28;20091;-74
2022/07/23 07:36:16;;;;;;;0.20;0.20;;;16.30;99.90;;;;;;5018654;28;20318;-75
2022/07/23 07:38:41;;;;;;;0.47;0.47;;;16.30;99.90;;;;;;5019610;28;20484;-75
2022/07/23 07:41:09;;;;;;;0.45;0.30;;;16.40;99.90;;;;;;5018830;28;20088;-74
2022/07/23 07:43:35;;;;;;;1.08;0.50;;;16.40;99.90;;;;;;5018741;28;20309;-79
2022/07/23 07:46:01;;;;;;;0.65;0.45;;;16.40;99.90;;;;;;5019034;28;20576;-76
2022/07/23 07:48:27;;;;;;;0.65;0.60;;;16.40;99.90;;;;;;5020698;28;20041;-76
2022/07/23 07:50:53;;;;;;;0.30;0.30;;;16.40;99.90;;;;;;5056165;28;20060;-76
2022/07/23 07:53:19;;;;;;;0.30;0.30;;;16.40;99.90;;;;;;5059258;28;20032;-77
2022/07/23 07:55:45;;;;;;;0.55;0.55;;;16.40;99.90;;;;;;5059581;28;20037;-77
2022/07/23 07:58:11;;;;;;;0.32;0.32;;;16.50;99.90;;;;;;5045164;28;20067;-77
2022/07/23 08:00:36;;;;;;;0.82;0.50;;;16.50;99.90;;;;;;5061442;28;20503;-77
2022/07/23 08:03:02;;;;;;;0.57;0.57;;;16.50;99.90;;;;;;5061706;28;20041;-77
2022/07/23 08:05:29;;;;;;;0.68;0.68;;;16.50;99.90;;;;;;5060310;28;20036;-77
2022/07/23 08:07:56;;;;;;;0.35;0.35;;;16.50;99.90;;;;;;5061589;28;20064;-77
2022/07/23 08:10:21;;;;;;;0.52;0.47;;;16.50;99.90;;;;;;5061908;28;20072;-77
2022/07/23 08:13:00;;;;;;;0.30;0.30;;;16.60;99.90;;;;;;5054208;28;20098;-77
2022/07/23 08:15:27;;;;;;;0.35;0.35;;;16.60;99.90;;;;;;5042493;28;20112;-77
2022/07/23 08:17:54;;;;;;;0.73;0.73;;;16.60;99.90;;;;;;5040382;28;20045;-77
2022/07/23 08:20:21;;;;;;;0.50;0.45;;;16.60;99.90;;;;;;5043350;28;20047;-77
2022/07/23 08:22:49;;;;;;;0.85;0.85;;;16.60;99.90;;;;;;5062279;28;20049;-77
2022/07/23 08:25:15;;;;;;;1.17;0.90;;;16.60;99.90;;;;;;5061645;28;20110;-77
2022/07/23 08:27:41;;;;;;;0.10;0.10;;;16.60;99.90;;;;;;5062455;28;20048;-77
2022/07/23 08:30:07;;;;;;;0.38;0.38;;;16.70;99.90;;;;;;5058866;28;20067;-77
2022/07/23 08:32:33;;;;;;;1.20;0.50;;;16.70;99.90;;;;;;5062056;28;20726;-77
2022/07/23 08:34:58;;;;;;;0.45;0.45;;;16.70;99.90;;;;;;5043924;28;20147;-76
2022/07/23 08:37:24;;;;;;;0.43;0.43;;;16.70;99.90;;;;;;5043965;28;20049;-76
2022/07/23 08:39:49;;;;;;;0.40;0.40;;;16.70;99.90;;;;;;5061705;28;20439;-76
2022/07/23 08:42:16;;;;;;;0.30;0.30;;;16.70;99.90;;;;;;5061664;28;20036;-76
2022/07/23 08:44:46;;;;;;;2.13;0.90;;;16.70;99.90;;;;;;5061774;28;20039;-76
2022/07/23 08:47:12;;;;;;;0.55;0.40;;;16.70;99.90;;;;;;5062068;28;20048;-77
2022/07/23 08:49:39;;;;;;;0.68;0.68;;;16.70;99.90;;;;;;5041543;28;20755;-76
2022/07/23 08:52:05;;;;;;;0.25;0.25;;;16.70;99.90;;;;;;5061186;28;20182;-76
2022/07/23 08:54:32;;;;;;;0.40;0.40;;;16.70;99.90;;;;;;5056316;28;20111;-78
2022/07/23 08:56:58;;;;;;;0.30;0.30;;;16.80;99.90;;;;;;5035949;28;20134;-76
2022/07/23 08:59:23;;;;;;;0.85;0.77;;;16.80;99.90;;;;;;5023597;28;20080;-76
2022/07/23 09:01:49;;;;;;;0.40;0.40;;;16.80;99.90;;;;;;5052535;28;20545;-76
2022/07/23 09:04:14;;;;;;;0.30;0.30;;;16.90;99.90;;;;;;5023343;28;20044;-77
2022/07/23 09:06:40;;;;;;;0.45;0.45;;;16.90;99.90;;;;;;5023659;28;20668;-78
2022/07/23 09:09:20;;;;;;;0.73;0.57;;;16.90;99.90;;;;;;5041447;28;20053;-77
2022/07/23 09:11:47;;;;;;;0.55;0.55;;;16.90;99.90;;;;;;5040655;28;20049;-77
2022/07/23 09:14:12;;;;;;;1.15;0.65;;;16.90;99.90;;;;;;5041714;28;20045;-76
2022/07/23 09:16:38;;;;;;;0.70;0.70;;;17.00;99.90;;;;;;5040410;28;20048;-77
2022/07/23 09:19:06;;;;;;;0.88;0.77;;;17.10;99.90;;;;;;5040186;28;20052;-77
2022/07/23 09:21:37;;;;;;;1.25;0.63;;;17.20;99.90;;;;;;5041426;28;20037;-77
2022/07/23 09:24:11;;;;;;;0.50;0.50;;;17.20;99.90;;;;;;5040882;28;20048;-76
2022/07/23 09:26:42;;;;;;;0.30;0.30;;;17.30;99.90;;;;;;5022796;28;20099;-84
2022/07/23 09:29:11;;;;;;;0.32;0.32;;;17.30;99.90;;;;;;5041008;28;20480;-80
2022/07/23 09:31:48;;;;;;;1.52;0.63;;;17.30;99.90;;;;;;5022147;28;20041;-80
2022/07/23 09:34:38;;;;;;;0.82;0.73;;;17.30;99.90;;;;;;5041035;28;20084;-78
2022/07/23 09:37:18;;;;;;;0.43;0.43;;;17.30;99.90;;;;;;5022445;28;20082;-80
2022/07/23 09:39:47;;;;;;;0.60;0.57;;;17.40;99.90;;;;;;5021974;28;20072;-79
2022/07/23 09:42:14;;;;;;;0.82;0.75;;;17.40;99.90;;;;;;5040571;28;20045;-80
2022/07/23 09:44:46;;;;;;;1.52;0.75;;;17.40;99.90;;;;;;5021444;28;20049;-80
2022/07/23 09:47:11;;;;;;;0.43;0.43;;;17.40;99.90;;;;;;5022852;28;20124;-80
2022/07/23 09:49:37;;;;;;;1.83;0.73;;;17.40;99.90;;;;;;5039786;28;20214;-81
2022/07/23 09:52:03;;;;;;;1.52;0.57;;;17.40;99.90;;;;;;5039630;28;20048;-80
2022/07/23 09:54:37;;;;;;;2.50;0.93;;;17.50;99.90;;;;;;5025492;28;20063;-79
2022/07/23 09:57:16;;;;;;;0.60;0.50;;;17.50;99.90;;;;;;5040045;28;20048;-79
2022/07/23 09:59:46;;;;;;;0.40;0.40;;;17.50;99.90;;;;;;5034672;28;20044;-79
2022/07/23 10:02:12;;;;;;;0.20;0.20;;;17.50;99.90;;;;;;5032264;28;20377;-80
2022/07/23 10:04:38;;;;;;;0.90;0.65;;;17.50;99.90;;;;;;5034622;28;20041;-79
2022/07/23 10:07:07;;;;;;;8.60;1.13;;;17.50;99.90;;;;;;5026454;28;20057;-80
2022/07/23 10:09:39;;;;;;;0.47;0.47;;;17.50;99.90;;;;;;5018999;28;20072;-79
2022/07/23 10:14:54;;;;;;;0.63;0.63;;;17.60;99.90;;;;;;5000811;28;20111;-79
2022/07/23 10:17:19;;;;;;;1.30;0.77;;;17.70;99.90;;;;;;5019541;28;20469;-79
2022/07/23 10:19:45;;;;;;;0.85;0.65;;;17.70;99.90;;;;;;5011048;28;20040;-80
2022/07/23 10:22:28;;;;;;;0.65;0.65;;;17.80;99.90;;;;;;5008778;28;20042;-80
2022/07/23 10:25:36;;;;;;;1.40;0.75;;;17.80;99.90;;;;;;5019218;28;20461;-78
2022/07/23 10:28:20;;;;;;;3.45;0.77;;;17.90;99.90;;;;;;4957103;28;20038;-80
2022/07/23 10:30:59;;;;;;;0.70;0.70;;;17.90;99.90;;;;;;4981670;28;20034;-79
2022/07/23 10:34:11;;;;;;;0.40;0.40;;;18.00;99.90;;;;;;5016743;28;20499;-89
2022/07/23 10:36:50;;;;;;;0.53;0.47;;;18.10;99.90;;;;;;5019879;28;20052;-80
2022/07/23 10:39:32;;;;;;;0.93;0.40;;;18.10;99.90;;;;;;5019678;28;20888;-80
2022/07/23 10:42:15;;;;;;;1.25;1.15;;;18.20;99.90;;;;;;5019939;28;20047;-80
2022/07/23 10:44:45;;;;;;;0.70;0.45;;;18.20;99.90;;;;;;5018593;28;20128;-80
2022/07/23 10:49:50;;;;;;;0.50;0.30;;;18.20;99.90;;;;;;5018925;28;20103;-83
2022/07/23 10:52:26;;;;;;;0.73;0.50;;;18.20;99.90;;;;;;5020078;28;20485;-83
2022/07/23 10:54:57;;;;;;;4.53;2.60;;;18.20;99.90;;;;;;5019502;28;20056;-83
2022/07/23 10:57:27;;;;;;;1.05;0.90;;;18.20;99.90;;;;;;5019981;28;20464;-84
2022/07/23 11:00:11;;;;;;;0.47;0.47;;;18.20;99.90;;;;;;5018089;28;20505;-82
2022/07/23 11:02:39;;;;;;;0.77;0.55;;;18.20;99.90;;;;;;5002114;28;20065;-84
2022/07/23 11:05:07;;;;;;;0.50;0.30;;;18.20;99.90;;;;;;5016693;28;20112;-84
2022/07/23 11:07:34;;;;;;;0.68;0.60;;;18.20;99.90;;;;;;5020825;28;20192;-89
2022/07/23 11:10:01;;;;;;;0.65;0.63;;;18.20;99.90;;;;;;5003582;28;20057;-81
2022/07/23 11:12:30;;;;;;;0.52;0.52;;;18.30;99.90;;;;;;5018645;28;20068;-80
2022/07/23 11:15:09;;;;;;;0.77;0.70;;;18.30;99.90;;;;;;5017243;28;20188;-80
2022/07/23 11:17:45;;;;;;;0.93;0.50;;;18.30;99.90;;;;;;5019323;28;20500;-79
2022/07/23 11:20:15;;;;;;;1.27;0.88;;;18.30;99.90;;;;;;5001281;28;20050;-79
2022/07/23 11:22:44;;;;;;;0.80;0.65;;;18.30;99.90;;;;;;5001701;28;20045;-79
2022/07/23 11:25:14;;;;;;;0.70;0.55;;;18.30;99.90;;;;;;5001994;28;20050;-79
2022/07/23 11:27:44;;;;;;;0.60;0.60;;;18.40;99.90;;;;;;5002121;28;20530;-79
2022/07/23 11:30:28;;;;;;;1.13;0.90;;;18.40;99.90;;;;;;5018679;28;20034;-80
2022/07/23 11:33:14;;;;;;;0.70;0.70;;;18.50;99.90;;;;;;4985179;28;20041;-80
2022/07/23 11:35:49;;;;;;;0.63;0.63;;;18.50;99.90;;;;;;4989338;28;20066;-79
2022/07/23 11:38:17;;;;;;;1.00;1.00;;;18.50;99.90;;;;;;4996065;28;20579;-79
2022/07/23 11:40:54;;;;;;;0.55;0.55;;;18.50;99.90;;;;;;5009912;28;20046;-82
2022/07/23 11:43:21;;;;;;;0.60;0.60;;;18.50;99.90;;;;;;5021860;28;20113;-80
2022/07/23 11:45:50;;;;;;;0.60;0.52;;;18.50;99.90;;;;;;5019847;28;20029;-80
2022/07/23 11:48:21;;;;;;;1.38;0.85;;;18.50;99.90;;;;;;5022724;28;20042;-80
2022/07/23 11:50:47;;;;;;;0.40;0.40;;;18.50;99.90;;;;;;5025743;28;20095;-80
2022/07/23 11:53:20;;;;;;;0.75;0.75;;;18.50;99.90;;;;;;5037509;28;20080;-79
2022/07/23 11:55:46;;;;;;;0.95;0.70;;;18.60;99.90;;;;;;5042690;28;20453;-83
2022/07/23 11:58:11;;;;;;;1.48;1.35;;;18.60;99.90;;;;;;5043032;28;20045;-81
2022/07/23 12:00:41;;;;;;;0.60;0.60;;;18.60;99.90;;;;;;5041580;28;20041;-77
2022/07/23 12:03:07;;;;;;;1.75;0.93;;;18.70;99.90;;;;;;5040005;28;20063;-75
2022/07/23 12:05:35;;;;;;;2.55;0.85;;;18.70;99.90;;;;;;5022418;28;20041;-76
2022/07/23 12:08:01;;;;;;;0.90;0.90;;;18.70;99.90;;;;;;5041139;28;20048;-76
2022/07/23 12:10:43;;;;;;;0.70;0.70;;;18.80;99.90;;;;;;5034074;28;20042;-78
2022/07/23 12:13:12;;;;;;;0.82;0.82;;;18.80;99.90;;;;;;5042358;28;20033;-77
2022/07/23 12:15:41;;;;;;;0.70;0.70;;;18.80;99.90;;;;;;5013028;28;20123;-77
2022/07/23 12:18:11;;;;;;;1.50;1.17;;;18.80;99.90;;;;;;5025896;28;20059;-77
2022/07/23 12:20:42;;;;;;;1.13;0.88;;;18.80;99.90;;;;;;5033742;28;20040;-77
2022/07/23 12:23:10;;;;;;;0.65;0.65;;;18.80;99.90;;;;;;5032180;28;20495;-77
2022/07/23 12:25:38;;;;;;;1.83;0.90;;;18.80;99.90;;;;;;5013312;28;20041;-77
2022/07/23 12:28:28;;;;;;;0.70;0.70;;;18.80;99.90;;;;;;5036717;28;20060;-78
2022/07/23 12:30:56;;;;;;;0.55;0.55;;;18.80;99.90;;;;;;5039917;28;20040;-78
2022/07/23 12:33:34;;;;;;;0.52;0.52;;;18.80;99.90;;;;;;5037199;28;20049;-79
2022/07/23 12:36:05;;;;;;;0.85;0.80;;;18.80;99.90;;;;;;5028557;28;20388;-78
2022/07/23 12:38:41;;;;;;;0.70;0.70;;;18.90;99.90;;;;;;5030478;28;20090;-78
2022/07/23 12:41:07;;;;;;;0.43;0.43;;;18.90;99.90;;;;;;5030965;28;20045;-77
2022/07/23 12:43:36;;;;;;;0.60;0.50;;;18.90;99.90;;;;;;5032030;28;20458;-77
2022/07/23 12:46:11;;;;;;;1.23;0.52;;;18.90;99.90;;;;;;5028234;28;20045;-77
2022/07/23 12:48:49;;;;;;;1.58;0.80;;;19.00;99.90;;;;;;5030120;28;20123;-77
2022/07/23 12:51:27;;;;;;;1.00;0.70;;;19.00;99.90;;;;;;5032011;28;20094;-78
2022/07/23 12:54:03;;;;;;;0.57;0.57;;;19.10;99.90;;;;;;5029413;28;20091;-76